KOUN

University of Oklahoma Westheimer Airport

Norman, Oklahoma, USA
METAR KOUN 201545Z 03010KT 10SM CLR 16/09 A3032
Observed Flight Rules
Oct-20 @ 15:45 UTC (2 hours ago) Visual Flight Rules
Wind Visibility Clouds
30° at 10 knots 10 miles
  • Clear skies
Temperatures Readings
Current 16°C / 61°F
Dewpoint 9°C / 48°F
Humidity 63%
Altimeter 30.32" Hg
Pressure 1027 hPa
Elevation 357
METAR KOUN 201545Z 03010KT 10SM CLR 16/09 A3032
Observed Flight Rules
Oct-20 @ 15:45 UTC
(2 hours ago)
VFR
Wind Visibility
30° at 10 knots 10 miles
Clouds
  • Clear skies
Temperature Dewpoint
16°C / 61°F 9°C / 48°F
Humidity Altimeter Pressure
63% 30.32" Hg 1027 hPa